Pagrindinis puslapis
METAR-TAF:

METAR-TAF

Oro uostai :

Larnaka, Kipras

platuma: 34-53N, ilguma: 033-38E, Aukštis: 2 m

Dabartinis oras

Ataskaita buvo paskelbta 21 minutes, ne 23:30 UTC
Vėjas 6 kt iš Šiaurės Vakarų
Temperatūra 23°C
Drėgmė 78%
Slėgis 1013 hPa
Matomumas 10 km arba daugiau
nėra debesų žemiau 1500 m ir nėra kamuolinių lietaus debesų

METAR: LCLK 182330Z 32006KT CAVOK 23/19 Q1013 NOSIG

Laikas: 02:51 (23:51 UTC)

Prognozė

Ataskaita buvo paskelbta 21 minutes, ne 23:30 UTC
Prognozė galioja nuo 19 metu 00 UTC su 19 metu 24 UTC
Vėjas 6 kt iš Šiaurės Vakarų
Matomumas 10 km arba daugiau
Mažai debesys ne aukštis 3000 ft
Tapsmas
nuo 19 metu 09 UTC su 19 metu 12 UTC
Vėjas 13 kt iš Pietų/Pietvakarių
Tapsmas
nuo 19 metu 16 UTC su 19 metu 18 UTC
Vėjas 9 kt iš Šiaurės Vakarų

TAF: LCLK 182330Z 1900/1924 32006KT 9999 FEW030 BECMG 1909/1912 21013KT BECMG 1916/1918 32009KT

Orai ataskaitas ir orų prognozės (METAR, TAF).

turimą stotys yra geltonos ir raudonos taškus žemėlapyje.

Perkelti pele per norėdami pamatyti stoties vardą.

Tada spustelėkite, norėdami matyti oro stebėjimo ir prognozės.

Norėdami pakeisti žemėlapį: spustelėkite ant žalios mygtukų su juodo kryžiaus žemyn,; žalią mygtuką su brūkšneliu, jei norite nutolinti; arba žalių rodyklių gretimoms žemėlapius.


METAR-TAF: